sensor_id;sensor_type;location;lat;lon;timestamp;P1;durP1;ratioP1;P2;durP2;ratioP2
30080;SDS011;16902;50.816;12.828;2022-10-28T00:02:19;8.35;;;6.63;;
30080;SDS011;16902;50.816;12.828;2022-10-28T00:07:20;12.02;;;6.55;;
30080;SDS011;16902;50.816;12.828;2022-10-28T00:12:22;7.53;;;6.32;;
30080;SDS011;16902;50.816;12.828;2022-10-28T00:17:24;6.88;;;5.88;;
30080;SDS011;16902;50.816;12.828;2022-10-28T00:22:26;6.68;;;5.97;;
30080;SDS011;16902;50.816;12.828;2022-10-28T00:27:28;8.90;;;6.40;;
30080;SDS011;16902;50.816;12.828;2022-10-28T00:32:30;7.90;;;6.53;;
30080;SDS011;16902;50.816;12.828;2022-10-28T00:37:32;7.18;;;6.30;;
30080;SDS011;16902;50.816;12.828;2022-10-28T00:42:34;8.50;;;6.75;;
30080;SDS011;16902;50.816;12.828;2022-10-28T00:53:00;11.43;;;6.93;;
30080;SDS011;16902;50.816;12.828;2022-10-28T00:58:05;11.50;;;6.75;;
30080;SDS011;16902;50.816;12.828;2022-10-28T01:03:09;9.20;;;6.60;;
30080;SDS011;16902;50.816;12.828;2022-10-28T01:08:11;10.35;;;6.20;;
30080;SDS011;16902;50.816;12.828;2022-10-28T01:24:18;7.03;;;5.18;;
30080;SDS011;16902;50.816;12.828;2022-10-28T01:34:55;6.60;;;5.30;;
30080;SDS011;16902;50.816;12.828;2022-10-28T01:56:06;9.88;;;5.60;;
30080;SDS011;16902;50.816;12.828;2022-10-28T02:01:11;7.35;;;5.18;;
30080;SDS011;16902;50.816;12.828;2022-10-28T02:06:24;9.80;;;5.78;;
30080;SDS011;16902;50.816;12.828;2022-10-28T02:11:44;6.55;;;5.30;;
30080;SDS011;16902;50.816;12.828;2022-10-28T02:17:20;5.97;;;5.03;;
30080;SDS011;16902;50.816;12.828;2022-10-28T02:27:47;7.03;;;5.55;;
30080;SDS011;16902;50.816;12.828;2022-10-28T02:32:56;6.03;;;5.13;;
30080;SDS011;16902;50.816;12.828;2022-10-28T02:38:01;5.30;;;4.72;;
30080;SDS011;16902;50.816;12.828;2022-10-28T02:43:10;7.93;;;5.53;;
30080;SDS011;16902;50.816;12.828;2022-10-28T02:48:16;5.88;;;4.95;;
30080;SDS011;16902;50.816;12.828;2022-10-28T02:53:29;6.78;;;4.75;;
30080;SDS011;16902;50.816;12.828;2022-10-28T02:58:37;7.82;;;5.53;;
30080;SDS011;16902;50.816;12.828;2022-10-28T03:03:40;8.60;;;5.35;;
30080;SDS011;16902;50.816;12.828;2022-10-28T03:08:42;8.50;;;5.13;;
30080;SDS011;16902;50.816;12.828;2022-10-28T03:13:44;7.05;;;5.05;;
30080;SDS011;16902;50.816;12.828;2022-10-28T03:18:46;8.15;;;5.53;;
30080;SDS011;16902;50.816;12.828;2022-10-28T03:23:48;8.48;;;5.00;;
30080;SDS011;16902;50.816;12.828;2022-10-28T03:28:49;6.72;;;5.38;;
30080;SDS011;16902;50.816;12.828;2022-10-28T03:33:51;7.20;;;5.35;;
30080;SDS011;16902;50.816;12.828;2022-10-28T03:38:53;7.75;;;5.70;;
30080;SDS011;16902;50.816;12.828;2022-10-28T03:43:55;8.80;;;5.57;;
30080;SDS011;16902;50.816;12.828;2022-10-28T03:48:57;5.93;;;5.30;;
30080;SDS011;16902;50.816;12.828;2022-10-28T03:53:58;6.70;;;5.97;;
30080;SDS011;16902;50.816;12.828;2022-10-28T03:59:00;9.07;;;6.22;;
30080;SDS011;16902;50.816;12.828;2022-10-28T04:04:02;6.85;;;5.55;;
30080;SDS011;16902;50.816;12.828;2022-10-28T04:09:04;7.82;;;5.55;;
30080;SDS011;16902;50.816;12.828;2022-10-28T04:14:06;6.60;;;5.45;;
30080;SDS011;16902;50.816;12.828;2022-10-28T04:19:07;8.75;;;5.40;;
30080;SDS011;16902;50.816;12.828;2022-10-28T04:24:09;7.57;;;6.75;;
30080;SDS011;16902;50.816;12.828;2022-10-28T04:29:11;9.13;;;5.85;;
30080;SDS011;16902;50.816;12.828;2022-10-28T04:34:13;8.25;;;5.18;;
30080;SDS011;16902;50.816;12.828;2022-10-28T04:39:15;8.63;;;6.70;;
30080;SDS011;16902;50.816;12.828;2022-10-28T04:44:16;10.40;;;6.93;;
30080;SDS011;16902;50.816;12.828;2022-10-28T04:49:18;9.52;;;5.82;;
30080;SDS011;16902;50.816;12.828;2022-10-28T04:54:20;7.15;;;6.15;;
30080;SDS011;16902;50.816;12.828;2022-10-28T04:59:22;8.80;;;6.03;;
30080;SDS011;16902;50.816;12.828;2022-10-28T05:04:24;5.95;;;5.25;;
30080;SDS011;16902;50.816;12.828;2022-10-28T05:09:25;8.45;;;6.00;;
30080;SDS011;16902;50.816;12.828;2022-10-28T05:14:27;8.45;;;6.03;;
30080;SDS011;16902;50.816;12.828;2022-10-28T05:19:29;7.32;;;5.63;;
30080;SDS011;16902;50.816;12.828;2022-10-28T05:24:30;6.97;;;5.95;;
30080;SDS011;16902;50.816;12.828;2022-10-28T05:29:32;7.30;;;5.93;;
30080;SDS011;16902;50.816;12.828;2022-10-28T05:34:33;7.35;;;5.68;;
30080;SDS011;16902;50.816;12.828;2022-10-28T05:39:36;7.53;;;6.50;;
30080;SDS011;16902;50.816;12.828;2022-10-28T05:44:37;11.70;;;6.30;;
30080;SDS011;16902;50.816;12.828;2022-10-28T05:49:39;7.80;;;6.70;;
30080;SDS011;16902;50.816;12.828;2022-10-28T05:54:41;17.48;;;9.00;;
30080;SDS011;16902;50.816;12.828;2022-10-28T05:59:42;10.57;;;8.20;;
30080;SDS011;16902;50.816;12.828;2022-10-28T06:04:44;14.38;;;8.18;;
30080;SDS011;16902;50.816;12.828;2022-10-28T06:09:46;13.35;;;8.82;;
30080;SDS011;16902;50.816;12.828;2022-10-28T06:14:47;13.77;;;10.35;;
30080;SDS011;16902;50.816;12.828;2022-10-28T06:19:49;16.83;;;11.82;;
30080;SDS011;16902;50.816;12.828;2022-10-28T06:24:50;20.13;;;11.70;;
30080;SDS011;16902;50.816;12.828;2022-10-28T06:29:52;22.05;;;12.25;;
30080;SDS011;16902;50.816;12.828;2022-10-28T06:34:54;19.98;;;11.30;;
30080;SDS011;16902;50.816;12.828;2022-10-28T06:39:55;18.60;;;11.05;;
30080;SDS011;16902;50.816;12.828;2022-10-28T06:44:59;20.20;;;10.90;;
30080;SDS011;16902;50.816;12.828;2022-10-28T06:50:00;17.90;;;10.32;;
30080;SDS011;16902;50.816;12.828;2022-10-28T06:55:02;15.25;;;11.25;;
30080;SDS011;16902;50.816;12.828;2022-10-28T07:00:04;15.48;;;11.15;;
30080;SDS011;16902;50.816;12.828;2022-10-28T07:05:06;18.05;;;10.90;;
30080;SDS011;16902;50.816;12.828;2022-10-28T07:10:08;15.50;;;9.93;;
30080;SDS011;16902;50.816;12.828;2022-10-28T07:15:10;13.45;;;9.27;;
30080;SDS011;16902;50.816;12.828;2022-10-28T07:20:11;11.52;;;8.65;;
30080;SDS011;16902;50.816;12.828;2022-10-28T07:25:13;10.05;;;8.30;;
30080;SDS011;16902;50.816;12.828;2022-10-28T07:30:14;15.23;;;8.75;;
30080;SDS011;16902;50.816;12.828;2022-10-28T07:35:16;12.07;;;9.07;;
30080;SDS011;16902;50.816;12.828;2022-10-28T07:40:19;12.32;;;9.25;;
30080;SDS011;16902;50.816;12.828;2022-10-28T07:45:21;17.17;;;9.98;;
30080;SDS011;16902;50.816;12.828;2022-10-28T07:50:22;10.48;;;7.93;;
30080;SDS011;16902;50.816;12.828;2022-10-28T07:55:24;9.07;;;7.25;;
30080;SDS011;16902;50.816;12.828;2022-10-28T08:00:26;10.25;;;6.93;;
30080;SDS011;16902;50.816;12.828;2022-10-28T08:05:27;14.45;;;6.10;;
30080;SDS011;16902;50.816;12.828;2022-10-28T08:10:29;9.85;;;7.00;;
30080;SDS011;16902;50.816;12.828;2022-10-28T08:15:31;9.25;;;7.20;;
30080;SDS011;16902;50.816;12.828;2022-10-28T08:20:33;11.70;;;6.90;;
30080;SDS011;16902;50.816;12.828;2022-10-28T08:25:35;11.77;;;6.43;;
30080;SDS011;16902;50.816;12.828;2022-10-28T08:30:37;9.57;;;6.65;;
30080;SDS011;16902;50.816;12.828;2022-10-28T08:35:57;10.20;;;5.85;;
30080;SDS011;16902;50.816;12.828;2022-10-28T08:41:04;9.40;;;6.15;;
30080;SDS011;16902;50.816;12.828;2022-10-28T08:46:25;11.55;;;6.68;;
30080;SDS011;16902;50.816;12.828;2022-10-28T08:56:58;13.10;;;7.82;;
30080;SDS011;16902;50.816;12.828;2022-10-28T09:02:17;10.57;;;8.20;;
30080;SDS011;16902;50.816;12.828;2022-10-28T09:07:22;11.65;;;9.93;;
30080;SDS011;16902;50.816;12.828;2022-10-28T09:22:56;12.23;;;11.23;;
30080;SDS011;16902;50.816;12.828;2022-10-28T09:28:05;13.52;;;11.93;;
30080;SDS011;16902;50.816;12.828;2022-10-28T09:33:29;16.80;;;12.82;;
30080;SDS011;16902;50.816;12.828;2022-10-28T09:38:43;13.57;;;12.18;;
30080;SDS011;16902;50.816;12.828;2022-10-28T09:44:05;13.23;;;12.27;;
30080;SDS011;16902;50.816;12.828;2022-10-28T09:49:23;13.90;;;12.65;;
30080;SDS011;16902;50.816;12.828;2022-10-28T09:54:33;14.18;;;12.75;;
30080;SDS011;16902;50.816;12.828;2022-10-28T09:59:36;14.32;;;13.27;;
30080;SDS011;16902;50.816;12.828;2022-10-28T10:04:38;13.85;;;12.63;;
30080;SDS011;16902;50.816;12.828;2022-10-28T10:09:40;14.50;;;13.10;;
30080;SDS011;16902;50.816;12.828;2022-10-28T10:14:45;13.68;;;12.48;;
30080;SDS011;16902;50.816;12.828;2022-10-28T10:20:05;14.70;;;13.30;;
30080;SDS011;16902;50.816;12.828;2022-10-28T10:25:20;14.85;;;13.23;;
30080;SDS011;16902;50.816;12.828;2022-10-28T10:30:47;14.90;;;13.45;;
30080;SDS011;16902;50.816;12.828;2022-10-28T10:35:53;15.57;;;14.15;;
30080;SDS011;16902;50.816;12.828;2022-10-28T10:41:01;14.27;;;13.07;;
30080;SDS011;16902;50.816;12.828;2022-10-28T10:46:12;14.73;;;13.63;;
30080;SDS011;16902;50.816;12.828;2022-10-28T10:51:23;13.50;;;12.25;;
30080;SDS011;16902;50.816;12.828;2022-10-28T10:56:27;14.93;;;13.57;;
30080;SDS011;16902;50.816;12.828;2022-10-28T11:01:31;14.55;;;13.32;;
30080;SDS011;16902;50.816;12.828;2022-10-28T11:06:38;14.43;;;13.20;;
30080;SDS011;16902;50.816;12.828;2022-10-28T11:11:44;14.75;;;13.48;;
30080;SDS011;16902;50.816;12.828;2022-10-28T11:43:55;13.80;;;12.57;;
30080;SDS011;16902;50.816;12.828;2022-10-28T12:15:18;15.15;;;13.95;;
30080;SDS011;16902;50.816;12.828;2022-10-28T12:26:03;16.05;;;14.60;;
30080;SDS011;16902;50.816;12.828;2022-10-28T12:31:11;14.73;;;13.43;;
30080;SDS011;16902;50.816;12.828;2022-10-28T12:52:21;15.50;;;14.02;;
30080;SDS011;16902;50.816;12.828;2022-10-28T12:57:32;15.65;;;14.38;;
30080;SDS011;16902;50.816;12.828;2022-10-28T13:02:40;15.93;;;14.40;;
30080;SDS011;16902;50.816;12.828;2022-10-28T13:29:24;17.27;;;15.57;;
30080;SDS011;16902;50.816;12.828;2022-10-28T13:34:33;17.45;;;15.20;;
30080;SDS011;16902;50.816;12.828;2022-10-28T13:39:42;17.50;;;15.75;;
30080;SDS011;16902;50.816;12.828;2022-10-28T13:44:55;15.65;;;14.25;;
30080;SDS011;16902;50.816;12.828;2022-10-28T13:50:07;16.13;;;14.38;;
30080;SDS011;16902;50.816;12.828;2022-10-28T13:55:25;16.50;;;14.85;;
30080;SDS011;16902;50.816;12.828;2022-10-28T14:00:42;15.60;;;14.60;;
30080;SDS011;16902;50.816;12.828;2022-10-28T14:05:50;16.33;;;14.95;;
30080;SDS011;16902;50.816;12.828;2022-10-28T14:21:23;15.48;;;14.13;;
30080;SDS011;16902;50.816;12.828;2022-10-28T14:26:25;16.35;;;14.95;;
30080;SDS011;16902;50.816;12.828;2022-10-28T14:31:37;16.60;;;15.18;;
30080;SDS011;16902;50.816;12.828;2022-10-28T14:52:52;16.73;;;14.48;;
30080;SDS011;16902;50.816;12.828;2022-10-28T15:03:20;15.68;;;14.40;;
30080;SDS011;16902;50.816;12.828;2022-10-28T15:08:23;15.88;;;14.30;;
30080;SDS011;16902;50.816;12.828;2022-10-28T15:13:25;16.70;;;15.35;;
30080;SDS011;16902;50.816;12.828;2022-10-28T15:18:27;16.88;;;15.32;;
30080;SDS011;16902;50.816;12.828;2022-10-28T15:23:28;16.83;;;14.60;;
30080;SDS011;16902;50.816;12.828;2022-10-28T15:28:30;16.67;;;15.02;;
30080;SDS011;16902;50.816;12.828;2022-10-28T15:33:39;16.30;;;14.77;;
30080;SDS011;16902;50.816;12.828;2022-10-28T15:38:43;16.13;;;14.20;;
30080;SDS011;16902;50.816;12.828;2022-10-28T15:44:05;16.05;;;14.45;;
30080;SDS011;16902;50.816;12.828;2022-10-28T15:49:18;15.40;;;14.20;;
30080;SDS011;16902;50.816;12.828;2022-10-28T15:54:34;15.95;;;14.48;;
30080;SDS011;16902;50.816;12.828;2022-10-28T15:59:36;13.77;;;12.45;;
30080;SDS011;16902;50.816;12.828;2022-10-28T16:09:44;14.60;;;13.60;;
30080;SDS011;16902;50.816;12.828;2022-10-28T16:14:55;14.57;;;13.45;;
30080;SDS011;16902;50.816;12.828;2022-10-28T16:20:00;15.25;;;14.15;;
30080;SDS011;16902;50.816;12.828;2022-10-28T16:25:19;15.43;;;14.07;;
30080;SDS011;16902;50.816;12.828;2022-10-28T16:30:22;15.50;;;14.32;;
30080;SDS011;16902;50.816;12.828;2022-10-28T16:35:24;15.35;;;13.95;;
30080;SDS011;16902;50.816;12.828;2022-10-28T16:40:26;15.40;;;14.02;;
30080;SDS011;16902;50.816;12.828;2022-10-28T16:45:49;13.23;;;12.40;;
30080;SDS011;16902;50.816;12.828;2022-10-28T16:50:54;17.17;;;14.82;;
30080;SDS011;16902;50.816;12.828;2022-10-28T16:55:58;16.08;;;14.88;;
30080;SDS011;16902;50.816;12.828;2022-10-28T17:01:00;17.35;;;15.80;;
30080;SDS011;16902;50.816;12.828;2022-10-28T17:06:05;16.05;;;14.85;;
30080;SDS011;16902;50.816;12.828;2022-10-28T17:11:07;15.32;;;13.82;;
30080;SDS011;16902;50.816;12.828;2022-10-28T17:16:15;14.65;;;13.52;;
30080;SDS011;16902;50.816;12.828;2022-10-28T17:21:17;14.30;;;13.25;;
30080;SDS011;16902;50.816;12.828;2022-10-28T17:26:18;15.88;;;14.45;;
30080;SDS011;16902;50.816;12.828;2022-10-28T17:31:20;16.02;;;14.27;;
30080;SDS011;16902;50.816;12.828;2022-10-28T17:36:25;14.65;;;13.52;;
30080;SDS011;16902;50.816;12.828;2022-10-28T17:41:27;14.95;;;13.57;;
30080;SDS011;16902;50.816;12.828;2022-10-28T17:46:29;14.68;;;13.30;;
30080;SDS011;16902;50.816;12.828;2022-10-28T17:51:30;13.90;;;12.80;;
30080;SDS011;16902;50.816;12.828;2022-10-28T17:56:32;16.40;;;15.10;;
30080;SDS011;16902;50.816;12.828;2022-10-28T18:01:34;15.85;;;14.60;;
30080;SDS011;16902;50.816;12.828;2022-10-28T18:06:36;18.20;;;16.67;;
30080;SDS011;16902;50.816;12.828;2022-10-28T18:11:38;16.08;;;14.77;;
30080;SDS011;16902;50.816;12.828;2022-10-28T18:16:40;14.57;;;13.02;;
30080;SDS011;16902;50.816;12.828;2022-10-28T18:21:41;14.48;;;13.02;;
30080;SDS011;16902;50.816;12.828;2022-10-28T18:26:45;17.30;;;13.55;;
30080;SDS011;16902;50.816;12.828;2022-10-28T18:31:46;15.32;;;13.02;;
30080;SDS011;16902;50.816;12.828;2022-10-28T18:36:48;15.98;;;13.85;;
30080;SDS011;16902;50.816;12.828;2022-10-28T18:41:50;15.00;;;13.45;;
30080;SDS011;16902;50.816;12.828;2022-10-28T18:46:52;14.45;;;12.13;;
30080;SDS011;16902;50.816;12.828;2022-10-28T18:51:53;17.58;;;12.27;;
30080;SDS011;16902;50.816;12.828;2022-10-28T18:56:55;14.40;;;11.75;;
30080;SDS011;16902;50.816;12.828;2022-10-28T19:01:58;16.55;;;11.15;;
30080;SDS011;16902;50.816;12.828;2022-10-28T19:06:59;12.27;;;11.10;;
30080;SDS011;16902;50.816;12.828;2022-10-28T19:12:01;12.20;;;10.95;;
30080;SDS011;16902;50.816;12.828;2022-10-28T19:17:03;12.27;;;11.07;;
30080;SDS011;16902;50.816;12.828;2022-10-28T19:22:04;14.73;;;12.23;;
30080;SDS011;16902;50.816;12.828;2022-10-28T19:27:08;20.55;;;14.07;;
30080;SDS011;16902;50.816;12.828;2022-10-28T19:32:10;14.07;;;11.35;;
30080;SDS011;16902;50.816;12.828;2022-10-28T19:37:11;11.27;;;10.23;;
30080;SDS011;16902;50.816;12.828;2022-10-28T19:42:15;14.55;;;11.40;;
30080;SDS011;16902;50.816;12.828;2022-10-28T19:47:19;11.30;;;10.20;;
30080;SDS011;16902;50.816;12.828;2022-10-28T19:52:21;11.98;;;10.18;;
30080;SDS011;16902;50.816;12.828;2022-10-28T19:57:22;10.52;;;9.63;;
30080;SDS011;16902;50.816;12.828;2022-10-28T20:02:24;9.85;;;8.98;;
30080;SDS011;16902;50.816;12.828;2022-10-28T20:07:26;10.60;;;9.25;;
30080;SDS011;16902;50.816;12.828;2022-10-28T20:12:27;12.93;;;10.30;;
30080;SDS011;16902;50.816;12.828;2022-10-28T20:17:29;11.07;;;9.30;;
30080;SDS011;16902;50.816;12.828;2022-10-28T20:22:30;11.77;;;10.68;;
30080;SDS011;16902;50.816;12.828;2022-10-28T20:27:32;13.52;;;10.90;;
30080;SDS011;16902;50.816;12.828;2022-10-28T20:32:34;12.60;;;11.35;;
30080;SDS011;16902;50.816;12.828;2022-10-28T20:37:36;12.32;;;11.23;;
30080;SDS011;16902;50.816;12.828;2022-10-28T20:42:38;12.27;;;11.02;;
30080;SDS011;16902;50.816;12.828;2022-10-28T20:47:39;12.95;;;11.57;;
30080;SDS011;16902;50.816;12.828;2022-10-28T20:52:41;13.52;;;11.60;;
30080;SDS011;16902;50.816;12.828;2022-10-28T20:57:43;11.93;;;10.63;;
30080;SDS011;16902;50.816;12.828;2022-10-28T21:02:44;14.10;;;11.30;;
30080;SDS011;16902;50.816;12.828;2022-10-28T21:07:46;11.43;;;10.45;;
30080;SDS011;16902;50.816;12.828;2022-10-28T21:12:47;10.85;;;10.02;;
30080;SDS011;16902;50.816;12.828;2022-10-28T21:17:50;9.95;;;9.20;;
30080;SDS011;16902;50.816;12.828;2022-10-28T21:22:51;10.32;;;9.52;;
30080;SDS011;16902;50.816;12.828;2022-10-28T21:27:57;12.48;;;9.52;;
30080;SDS011;16902;50.816;12.828;2022-10-28T21:33:00;11.63;;;10.48;;
30080;SDS011;16902;50.816;12.828;2022-10-28T21:38:02;11.18;;;10.15;;
30080;SDS011;16902;50.816;12.828;2022-10-28T21:43:04;12.05;;;9.60;;
30080;SDS011;16902;50.816;12.828;2022-10-28T21:48:07;10.95;;;8.77;;
30080;SDS011;16902;50.816;12.828;2022-10-28T21:53:08;9.73;;;8.65;;
30080;SDS011;16902;50.816;12.828;2022-10-28T21:58:10;9.65;;;8.82;;
30080;SDS011;16902;50.816;12.828;2022-10-28T22:03:12;9.93;;;9.05;;
30080;SDS011;16902;50.816;12.828;2022-10-28T22:08:14;10.60;;;9.27;;
30080;SDS011;16902;50.816;12.828;2022-10-28T22:13:16;13.35;;;9.63;;
30080;SDS011;16902;50.816;12.828;2022-10-28T22:18:18;11.35;;;8.93;;
30080;SDS011;16902;50.816;12.828;2022-10-28T22:23:19;10.25;;;8.48;;
30080;SDS011;16902;50.816;12.828;2022-10-28T22:28:21;10.95;;;8.88;;
30080;SDS011;16902;50.816;12.828;2022-10-28T22:33:22;9.65;;;8.32;;
30080;SDS011;16902;50.816;12.828;2022-10-28T22:38:24;13.18;;;8.88;;
30080;SDS011;16902;50.816;12.828;2022-10-28T22:43:26;9.95;;;9.05;;
30080;SDS011;16902;50.816;12.828;2022-10-28T22:48:28;10.70;;;9.65;;
30080;SDS011;16902;50.816;12.828;2022-10-28T22:53:30;11.38;;;9.40;;
30080;SDS011;16902;50.816;12.828;2022-10-28T22:58:31;12.40;;;9.00;;
30080;SDS011;16902;50.816;12.828;2022-10-28T23:03:40;14.35;;;9.27;;
30080;SDS011;16902;50.816;12.828;2022-10-28T23:08:43;13.70;;;10.70;;
30080;SDS011;16902;50.816;12.828;2022-10-28T23:13:48;11.15;;;10.05;;
30080;SDS011;16902;50.816;12.828;2022-10-28T23:18:51;11.93;;;10.38;;
30080;SDS011;16902;50.816;12.828;2022-10-28T23:23:54;11.30;;;10.18;;
30080;SDS011;16902;50.816;12.828;2022-10-28T23:28:58;11.77;;;10.55;;
30080;SDS011;16902;50.816;12.828;2022-10-28T23:34:00;14.38;;;9.45;;
30080;SDS011;16902;50.816;12.828;2022-10-28T23:39:01;11.32;;;9.60;;
30080;SDS011;16902;50.816;12.828;2022-10-28T23:44:03;11.38;;;10.10;;
30080;SDS011;16902;50.816;12.828;2022-10-28T23:49:04;12.27;;;10.10;;
30080;SDS011;16902;50.816;12.828;2022-10-28T23:54:06;10.68;;;9.60;;
30080;SDS011;16902;50.816;12.828;2022-10-28T23:59:08;11.43;;;10.23;;
